Time;durP1;ratioP1;P1;durP2;ratioP2;P2;SDS_P1;SDS_P2;PMS_P1;PMS_P2;Temp;Humidity;BMP_temperature;BMP_pressure;BME280_temperature;BME280_humidity;BME280_pressure;Samples;Min_cycle;Max_cycle;Signal;HPM_P1;HPM_P2
2022/12/07 00:00:39;;;;;;;;;;;;;;;;;;5039955;28;5038;-61
2022/12/07 00:03:04;;;;;;;;;;;;;;;;;;5027816;28;5124;-61
2022/12/07 00:05:30;;;;;;;;;;;;;;;;;;5040694;28;1213;-60
2022/12/07 00:07:55;;;;;;;;;;;;;;;;;;5043683;28;4855;-61
2022/12/07 00:10:20;;;;;;;;;;;;;;;;;;5030113;28;5081;-61
2022/12/07 00:12:46;;;;;;;;;;;;;;;;;;5046979;28;4687;-61
2022/12/07 00:15:11;;;;;;;;;;;;;;;;;;5041760;28;4825;-60
2022/12/07 00:17:36;;;;;;;;;;;;;;;;;;5040916;28;3924;-61
2022/12/07 00:20:01;;;;;;;;;;;;;;;;;;5028992;28;4950;-61
2022/12/07 00:22:27;;;;;;;;;;;;;;;;;;5033681;28;4956;-61
2022/12/07 00:24:52;;;;;;;;;;;;;;;;;;5025765;28;4774;-60
2022/12/07 00:27:17;;;;;;;;;;;;;;;;;;5048005;28;5470;-61
2022/12/07 00:29:42;;;;;;;;;;;;;;;;;;5039959;28;1114;-61
2022/12/07 00:32:08;;;;;;;;;;;;;;;;;;5044214;28;4577;-61
2022/12/07 00:34:33;;;;;;;;;;;;;;;;;;5046967;28;4975;-61
2022/12/07 00:36:58;;;;;;;;;;;;;;;;;;5048058;28;4925;-61
2022/12/07 00:39:23;;;;;;;;;;;;;;;;;;5041248;28;5000;-61
2022/12/07 00:41:49;;;;;;;;;;;;;;;;;;5046251;28;4537;-61
2022/12/07 00:44:14;;;;;;;;;;;;;;;;;;5043209;28;3493;-60
2022/12/07 00:46:39;;;;;;;;;;;;;;;;;;5035644;28;5133;-61
2022/12/07 00:49:04;;;;;;;;;;;;;;;;;;5050857;28;5092;-60
2022/12/07 00:51:30;;;;;;;;;;;;;;;;;;5053406;28;4890;-61
2022/12/07 00:53:55;;;;;;;;;;;;;;;;;;5047706;28;5432;-60
2022/12/07 00:56:21;;;;;;;;;;;;;;;;;;5031437;28;3352;-61
2022/12/07 00:58:53;;;;;;;;;;;;;;;;;;5025352;28;5587;-61
2022/12/07 01:01:19;;;;;;;;;;;;;;;;;;5026402;28;4855;-61
2022/12/07 01:03:44;;;;;;;;;;;;;;;;;;5038353;28;5129;-61
2022/12/07 01:06:09;;;;;;;;;;;;;;;;;;5047098;28;5168;-61
2022/12/07 01:08:34;;;;;;;;;;;;;;;;;;5047844;28;1757;-60
2022/12/07 01:11:01;;;;;;;;;;;;;;;;;;5044036;28;4849;-61
2022/12/07 01:13:28;;;;;;;;;;;;;;;;;;5043953;28;4999;-61
2022/12/07 01:15:55;;;;;;;;;;;;;;;;;;5036937;28;5296;-60
2022/12/07 01:18:20;;;;;;;;;;;;;;;;;;5025257;28;5085;-60
2022/12/07 01:20:45;;;;;;;;;;;;;;;;;;5048607;28;3073;-60
2022/12/07 01:23:11;;;;;;;;;;;;;;;;;;5030815;28;4954;-60
2022/12/07 01:25:36;;;;;;;;;;;;;;;;;;5030796;28;5086;-60
2022/12/07 01:28:01;;;;;;;;;;;;;;;;;;5030544;28;4892;-60
2022/12/07 01:30:26;;;;;;;;;;;;;;;;;;5024246;28;5015;-60
2022/12/07 01:32:52;;;;;;;;;;;;;;;;;;5019500;28;5032;-60
2022/12/07 01:35:17;;;;;;;;;;;;;;;;;;5029156;28;2935;-60
2022/12/07 01:37:42;;;;;;;;;;;;;;;;;;5037198;28;4934;-61
2022/12/07 01:40:07;;;;;;;;;;;;;;;;;;5021687;28;5096;-60
2022/12/07 01:42:33;;;;;;;;;;;;;;;;;;5024353;28;5140;-60
2022/12/07 01:45:17;;;;;;;;;;;;;;;;;;5025909;28;4796;-60
2022/12/07 01:47:42;;;;;;;;;;;;;;;;;;5027061;28;1483;-60
2022/12/07 01:50:08;;;;;;;;;;;;;;;;;;5026178;28;4602;-60
2022/12/07 01:52:33;;;;;;;;;;;;;;;;;;5020633;28;5254;-59
2022/12/07 01:55:03;;;;;;;;;;;;;;;;;;5029581;28;4663;-61
2022/12/07 01:57:28;;;;;;;;;;;;;;;;;;5017644;28;5127;-60
2022/12/07 01:59:53;;;;;;;;;;;;;;;;;;5018062;28;5121;-60
2022/12/07 02:02:31;;;;;;;;;;;;;;;;;;5025819;28;1993;-61
2022/12/07 02:04:56;;;;;;;;;;;;;;;;;;5028620;28;5542;-61
2022/12/07 02:07:21;;;;;;;;;;;;;;;;;;5051657;28;5009;-61
2022/12/07 02:09:47;;;;;;;;;;;;;;;;;;5053590;28;5056;-61
2022/12/07 02:12:12;;;;;;;;;;;;;;;;;;5023330;28;4535;-60
2022/12/07 02:14:37;;;;;;;;;;;;;;;;;;5029980;28;1228;-61
2022/12/07 02:17:02;;;;;;;;;;;;;;;;;;5051900;28;4990;-60
2022/12/07 02:19:37;;;;;;;;;;;;;;;;;;5026808;28;4817;-60
2022/12/07 02:22:17;;;;;;;;;;;;;;;;;;5029195;28;4994;-60
2022/12/07 02:24:43;;;;;;;;;;;;;;;;;;5026651;28;4965;-61
2022/12/07 02:27:17;;;;;;;;;;;;;;;;;;5028939;28;5453;-60
2022/12/07 02:29:42;;;;;;;;;;;;;;;;;;5029599;28;1192;-60
2022/12/07 02:32:25;;;;;;;;;;;;;;;;;;5029128;28;5062;-60
2022/12/07 02:34:51;;;;;;;;;;;;;;;;;;5024509;28;4709;-60
2022/12/07 02:37:24;;;;;;;;;;;;;;;;;;5050557;28;4994;-61
2022/12/07 02:39:51;;;;;;;;;;;;;;;;;;5026497;28;5270;-60
2022/12/07 02:42:17;;;;;;;;;;;;;;;;;;5022045;28;5135;-60
2022/12/07 02:44:42;;;;;;;;;;;;;;;;;;5011508;28;1739;-59
2022/12/07 02:47:09;;;;;;;;;;;;;;;;;;5022860;28;4797;-60
2022/12/07 02:49:34;;;;;;;;;;;;;;;;;;5024513;28;4673;-60
2022/12/07 02:51:59;;;;;;;;;;;;;;;;;;5016543;28;4747;-60
2022/12/07 02:54:25;;;;;;;;;;;;;;;;;;5027040;28;4758;-59
2022/12/07 02:56:52;;;;;;;;;;;;;;;;;;5023044;28;4978;-61
2022/12/07 02:59:37;;;;;;;;;;;;;;;;;;5022133;28;1040;-61
2022/12/07 03:02:13;;;;;;;;;;;;;;;;;;5023974;28;4829;-61
2022/12/07 03:04:48;;;;;;;;;;;;;;;;;;5014353;28;4986;-61
2022/12/07 03:07:32;;;;;;;;;;;;;;;;;;5027771;28;5054;-60
2022/12/07 03:09:57;;;;;;;;;;;;;;;;;;5028491;28;4840;-60
2022/12/07 03:12:25;;;;;;;;;;;;;;;;;;5025736;28;4470;-60
2022/12/07 03:14:53;;;;;;;;;;;;;;;;;;5018617;28;4874;-60
2022/12/07 03:17:19;;;;;;;;;;;;;;;;;;5027611;28;1213;-60
2022/12/07 03:19:44;;;;;;;;;;;;;;;;;;5024734;28;4836;-60
2022/12/07 03:22:10;;;;;;;;;;;;;;;;;;5024587;28;5080;-60
2022/12/07 03:24:41;;;;;;;;;;;;;;;;;;5025695;28;4963;-61
2022/12/07 03:27:07;;;;;;;;;;;;;;;;;;5025532;28;5131;-61
2022/12/07 03:29:37;;;;;;;;;;;;;;;;;;5026003;28;1151;-61
2022/12/07 03:32:06;;;;;;;;;;;;;;;;;;5026551;28;4777;-61
2022/12/07 03:34:32;;;;;;;;;;;;;;;;;;5026283;28;5051;-61
2022/12/07 03:37:03;;;;;;;;;;;;;;;;;;5026557;28;5027;-61
2022/12/07 03:39:36;;;;;;;;;;;;;;;;;;5026910;28;5465;-59
2022/12/07 03:42:01;;;;;;;;;;;;;;;;;;5020266;28;4968;-61
2022/12/07 03:44:26;;;;;;;;;;;;;;;;;;5026931;28;1919;-60
2022/12/07 03:46:56;;;;;;;;;;;;;;;;;;5018582;28;4983;-60
2022/12/07 03:49:24;;;;;;;;;;;;;;;;;;5021711;28;5292;-60
2022/12/07 03:51:52;;;;;;;;;;;;;;;;;;5023822;28;4963;-61
2022/12/07 03:54:19;;;;;;;;;;;;;;;;;;5015346;28;5048;-61
2022/12/07 03:56:44;;;;;;;;;;;;;;;;;;5018292;28;1125;-61
2022/12/07 03:59:09;;;;;;;;;;;;;;;;;;5016066;28;5196;-60
2022/12/07 04:01:35;;;;;;;;;;;;;;;;;;5043839;28;5032;-60
2022/12/07 04:04:00;;;;;;;;;;;;;;;;;;5027634;28;5051;-61
2022/12/07 04:06:25;;;;;;;;;;;;;;;;;;5028087;28;5285;-61
2022/12/07 04:08:51;;;;;;;;;;;;;;;;;;5027749;28;4928;-57
2022/12/07 04:11:16;;;;;;;;;;;;;;;;;;5028234;28;1077;-61
2022/12/07 04:16:25;;;;;;;;;;;;;;;;;;5022616;28;4909;-58
2022/12/07 04:18:50;;;;;;;;;;;;;;;;;;5026722;28;4661;-61
2022/12/07 04:21:15;;;;;;;;;;;;;;;;;;5024949;28;5275;-60
2022/12/07 04:23:41;;;;;;;;;;;;;;;;;;5026102;28;1973;-60
2022/12/07 04:26:06;;;;;;;;;;;;;;;;;;5024528;28;5144;-60
2022/12/07 04:28:31;;;;;;;;;;;;;;;;;;5022806;28;5006;-60
2022/12/07 04:30:56;;;;;;;;;;;;;;;;;;5056969;28;5118;-60
2022/12/07 04:33:21;;;;;;;;;;;;;;;;;;5025373;28;4975;-61
2022/12/07 04:35:47;;;;;;;;;;;;;;;;;;5019945;28;5114;-59
2022/12/07 04:38:12;;;;;;;;;;;;;;;;;;5027963;28;1732;-61
2022/12/07 04:40:37;;;;;;;;;;;;;;;;;;5026021;28;4984;-61
2022/12/07 04:43:02;;;;;;;;;;;;;;;;;;5026971;28;5017;-61
2022/12/07 04:45:28;;;;;;;;;;;;;;;;;;5018527;28;5605;-61
2022/12/07 04:47:53;;;;;;;;;;;;;;;;;;5026463;28;4878;-60
2022/12/07 04:50:18;;;;;;;;;;;;;;;;;;5019172;28;1206;-60
2022/12/07 04:52:44;;;;;;;;;;;;;;;;;;5026048;28;5026;-61
2022/12/07 04:55:09;;;;;;;;;;;;;;;;;;5020773;28;5096;-63
2022/12/07 04:57:34;;;;;;;;;;;;;;;;;;5026668;28;4999;-61
2022/12/07 04:59:59;;;;;;;;;;;;;;;;;;5019888;28;4979;-61
2022/12/07 05:02:24;;;;;;;;;;;;;;;;;;5021169;28;1914;-61
2022/12/07 05:04:50;;;;;;;;;;;;;;;;;;5027054;28;5038;-61
2022/12/07 05:07:15;;;;;;;;;;;;;;;;;;5026962;28;5109;-60
2022/12/07 05:09:40;;;;;;;;;;;;;;;;;;5025783;28;4473;-60
2022/12/07 05:12:05;;;;;;;;;;;;;;;;;;5027138;28;4857;-59
2022/12/07 05:14:31;;;;;;;;;;;;;;;;;;5028191;28;1108;-61
2022/12/07 05:16:56;;;;;;;;;;;;;;;;;;5028486;28;4828;-60
2022/12/07 05:19:21;;;;;;;;;;;;;;;;;;5029085;28;4432;-61
2022/12/07 05:21:47;;;;;;;;;;;;;;;;;;5027181;28;5510;-61
2022/12/07 05:24:13;;;;;;;;;;;;;;;;;;5016600;28;5594;-60
2022/12/07 05:26:38;;;;;;;;;;;;;;;;;;5026733;28;3639;-60
2022/12/07 05:29:03;;;;;;;;;;;;;;;;;;5023308;28;4887;-60
2022/12/07 05:31:29;;;;;;;;;;;;;;;;;;5020067;28;4846;-61
2022/12/07 05:33:54;;;;;;;;;;;;;;;;;;5019288;28;4490;-61
2022/12/07 05:36:19;;;;;;;;;;;;;;;;;;5018233;28;4754;-60
2022/12/07 05:38:45;;;;;;;;;;;;;;;;;;5025380;28;2331;-59
2022/12/07 05:42:11;;;;;;;;;;;;;;;;;;5019996;28;5070;-60
2022/12/07 05:43:56;;;;;;;;;;;;;;;;;;5028821;28;4686;-60
2022/12/07 05:46:22;;;;;;;;;;;;;;;;;;5021744;28;4957;-61
2022/12/07 05:48:47;;;;;;;;;;;;;;;;;;5019284;28;4463;-61
2022/12/07 05:51:12;;;;;;;;;;;;;;;;;;5019193;28;5147;-60
2022/12/07 05:53:37;;;;;;;;;;;;;;;;;;5023950;28;4480;-61
2022/12/07 05:56:03;;;;;;;;;;;;;;;;;;5022952;28;4959;-60
2022/12/07 06:01:12;;;;;;;;;;;;;;;;;;5025617;28;4991;-61
2022/12/07 06:03:37;;;;;;;;;;;;;;;;;;5021861;28;4844;-60
2022/12/07 06:06:02;;;;;;;;;;;;;;;;;;5023859;28;4945;-60
2022/12/07 06:08:27;;;;;;;;;;;;;;;;;;5019014;28;3201;-60
2022/12/07 06:12:33;;;;;;;;;;;;;;;;;;5018481;28;4966;-60
2022/12/07 06:13:38;;;;;;;;;;;;;;;;;;5015729;28;5118;-60
2022/12/07 06:16:03;;;;;;;;;;;;;;;;;;5021625;28;5075;-60
2022/12/07 06:18:28;;;;;;;;;;;;;;;;;;5020640;28;4904;-60
2022/12/07 06:20:54;;;;;;;;;;;;;;;;;;5025051;28;4505;-60
2022/12/07 06:23:19;;;;;;;;;;;;;;;;;;5018717;28;3276;-60
2022/12/07 06:25:47;;;;;;;;;;;;;;;;;;5026935;28;4833;-61
2022/12/07 06:28:12;;;;;;;;;;;;;;;;;;5017161;28;5065;-60
2022/12/07 06:30:37;;;;;;;;;;;;;;;;;;5024913;28;5086;-61
2022/12/07 06:33:03;;;;;;;;;;;;;;;;;;5028689;28;4925;-60
2022/12/07 06:35:28;;;;;;;;;;;;;;;;;;5029032;28;3491;-60
2022/12/07 06:37:53;;;;;;;;;;;;;;;;;;5027497;28;4712;-60
2022/12/07 06:40:18;;;;;;;;;;;;;;;;;;5019721;28;4974;-60
2022/12/07 06:42:44;;;;;;;;;;;;;;;;;;5022283;28;4504;-61
2022/12/07 06:45:09;;;;;;;;;;;;;;;;;;5017029;28;5060;-60
2022/12/07 06:47:34;;;;;;;;;;;;;;;;;;5021622;28;3158;-61
2022/12/07 06:50:00;;;;;;;;;;;;;;;;;;5015796;28;4807;-61
2022/12/07 06:52:25;;;;;;;;;;;;;;;;;;5014068;28;5021;-59
2022/12/07 06:54:50;;;;;;;;;;;;;;;;;;5013928;28;5714;-60
2022/12/07 06:57:15;;;;;;;;;;;;;;;;;;5018670;28;4984;-61
2022/12/07 06:59:41;;;;;;;;;;;;;;;;;;5025492;28;1466;-61
2022/12/07 07:02:07;;;;;;;;;;;;;;;;;;5016547;28;4601;-58
2022/12/07 07:04:32;;;;;;;;;;;;;;;;;;5014646;28;5081;-61
2022/12/07 07:06:57;;;;;;;;;;;;;;;;;;5022579;28;4589;-60
2022/12/07 07:09:23;;;;;;;;;;;;;;;;;;5026108;28;5200;-61
2022/12/07 07:11:48;;;;;;;;;;;;;;;;;;5023113;28;5116;-59
2022/12/07 07:14:18;;;;;;;;;;;;;;;;;;5020387;28;1214;-60
2022/12/07 07:16:43;;;;;;;;;;;;;;;;;;5021229;28;4475;-59
2022/12/07 07:19:09;;;;;;;;;;;;;;;;;;5021964;28;5514;-60
2022/12/07 07:21:34;;;;;;;;;;;;;;;;;;5011020;28;5071;-61
2022/12/07 07:24:00;;;;;;;;;;;;;;;;;;5025959;28;5176;-60
2022/12/07 07:26:25;;;;;;;;;;;;;;;;;;5025539;28;3321;-60
2022/12/07 07:28:50;;;;;;;;;;;;;;;;;;5016446;28;4551;-61
2022/12/07 07:31:15;;;;;;;;;;;;;;;;;;5019837;28;4847;-61
2022/12/07 07:33:40;;;;;;;;;;;;;;;;;;5024407;28;5031;-60
2022/12/07 07:36:06;;;;;;;;;;;;;;;;;;5009400;28;4845;-60
2022/12/07 07:38:31;;;;;;;;;;;;;;;;;;5020065;28;3477;-60
2022/12/07 07:40:57;;;;;;;;;;;;;;;;;;5024094;28;4888;-59
2022/12/07 07:43:22;;;;;;;;;;;;;;;;;;5006210;28;5242;-59
2022/12/07 07:45:47;;;;;;;;;;;;;;;;;;5023650;28;4685;-60
2022/12/07 07:48:12;;;;;;;;;;;;;;;;;;5026968;28;4888;-61
2022/12/07 07:50:38;;;;;;;;;;;;;;;;;;5025082;28;3261;-60
2022/12/07 07:53:03;;;;;;;;;;;;;;;;;;5017552;28;5186;-62
2022/12/07 07:55:28;;;;;;;;;;;;;;;;;;5026337;28;5488;-60
2022/12/07 07:57:53;;;;;;;;;;;;;;;;;;5020036;28;5367;-59
2022/12/07 08:00:19;;;;;;;;;;;;;;;;;;5025670;28;5487;-63
2022/12/07 08:06:02;;;;;;;;;;;;;;;;;;5052348;28;5035;-58
2022/12/07 08:08:27;;;;;;;;;;;;;;;;;;5040920;28;3295;-58
2022/12/07 08:10:52;;;;;;;;;;;;;;;;;;5030970;28;5102;-57
2022/12/07 08:13:17;;;;;;;;;;;;;;;;;;5056794;28;5179;-58
2022/12/07 08:15:43;;;;;;;;;;;;;;;;;;5061329;28;5090;-59
2022/12/07 08:18:09;;;;;;;;;;;;;;;;;;5053295;28;5222;-58
2022/12/07 08:20:34;;;;;;;;;;;;;;;;;;5055210;28;3390;-58
2022/12/07 08:22:59;;;;;;;;;;;;;;;;;;5058821;28;4852;-58
2022/12/07 08:25:25;;;;;;;;;;;;;;;;;;5059380;28;5049;-57
2022/12/07 08:27:50;;;;;;;;;;;;;;;;;;5050534;28;5065;-57
2022/12/07 08:30:16;;;;;;;;;;;;;;;;;;5046642;28;5092;-58
2022/12/07 08:32:41;;;;;;;;;;;;;;;;;;5057690;28;1753;-58
2022/12/07 08:35:06;;;;;;;;;;;;;;;;;;5076031;28;4930;-58
2022/12/07 08:37:32;;;;;;;;;;;;;;;;;;5050962;28;4603;-58
2022/12/07 08:39:57;;;;;;;;;;;;;;;;;;5040501;28;4929;-57
2022/12/07 08:42:27;;;;;;;;;;;;;;;;;;5061719;28;4978;-57
2022/12/07 08:44:52;;;;;;;;;;;;;;;;;;5055636;28;5102;-58
2022/12/07 08:47:17;;;;;;;;;;;;;;;;;;5070317;28;1459;-58
2022/12/07 08:49:43;;;;;;;;;;;;;;;;;;5063253;28;5073;-58
2022/12/07 08:52:08;;;;;;;;;;;;;;;;;;5061634;28;5201;-58
2022/12/07 08:54:34;;;;;;;;;;;;;;;;;;5056120;28;5004;-58
2022/12/07 08:57:00;;;;;;;;;;;;;;;;;;5064940;28;5005;-58
2022/12/07 08:59:25;;;;;;;;;;;;;;;;;;5071578;28;1213;-58
2022/12/07 09:01:50;;;;;;;;;;;;;;;;;;5079818;28;5001;-58
2022/12/07 09:04:15;;;;;;;;;;;;;;;;;;5049641;28;4509;-57
2022/12/07 09:06:41;;;;;;;;;;;;;;;;;;5055719;28;4675;-58
2022/12/07 09:09:06;;;;;;;;;;;;;;;;;;5061311;28;4956;-58
2022/12/07 09:11:31;;;;;;;;;;;;;;;;;;5063556;28;1322;-60
2022/12/07 09:13:57;;;;;;;;;;;;;;;;;;5066895;28;5051;-61
2022/12/07 09:16:22;;;;;;;;;;;;;;;;;;5052997;28;5289;-58
2022/12/07 09:18:47;;;;;;;;;;;;;;;;;;5064086;28;4458;-58
2022/12/07 09:21:12;;;;;;;;;;;;;;;;;;5062076;28;5248;-59
2022/12/07 09:23:38;;;;;;;;;;;;;;;;;;5062713;28;2890;-58
2022/12/07 09:26:04;;;;;;;;;;;;;;;;;;5059344;28;4933;-59
2022/12/07 09:28:30;;;;;;;;;;;;;;;;;;5053714;28;5036;-59
2022/12/07 09:30:55;;;;;;;;;;;;;;;;;;5070763;28;5123;-58
2022/12/07 09:33:20;;;;;;;;;;;;;;;;;;5060171;28;5062;-61
2022/12/07 09:35:48;;;;;;;;;;;;;;;;;;5056445;28;1031;-60
2022/12/07 09:38:14;;;;;;;;;;;;;;;;;;5068007;28;5389;-59
2022/12/07 09:40:39;;;;;;;;;;;;;;;;;;5063894;28;5618;-57
2022/12/07 09:43:04;;;;;;;;;;;;;;;;;;5040131;28;5032;-57
2022/12/07 09:45:35;;;;;;;;;;;;;;;;;;5032045;28;4655;-58
2022/12/07 09:48:00;;;;;;;;;;;;;;;;;;5047178;28;4852;-58
2022/12/07 09:50:26;;;;;;;;;;;;;;;;;;5049322;28;1237;-58
2022/12/07 09:52:51;;;;;;;;;;;;;;;;;;5067934;28;4579;-57
2022/12/07 09:55:24;;;;;;;;;;;;;;;;;;5038626;28;4475;-59
2022/12/07 09:57:51;;;;;;;;;;;;;;;;;;5063244;28;4496;-57
2022/12/07 10:00:17;;;;;;;;;;;;;;;;;;5066140;28;5291;-58
2022/12/07 10:02:43;;;;;;;;;;;;;;;;;;5069997;28;1973;-57
2022/12/07 10:05:13;;;;;;;;;;;;;;;;;;5053106;28;5101;-57
2022/12/07 10:07:38;;;;;;;;;;;;;;;;;;5076996;28;4627;-57
2022/12/07 10:10:12;;;;;;;;;;;;;;;;;;5081690;28;4615;-56
2022/12/07 10:13:00;;;;;;;;;;;;;;;;;;5068428;28;5066;-58
2022/12/07 10:15:58;;;;;;;;;;;;;;;;;;5068348;28;4887;-58
2022/12/07 10:18:27;;;;;;;;;;;;;;;;;;5049343;28;4453;-57
2022/12/07 10:21:03;;;;;;;;;;;;;;;;;;5069147;28;5158;-66
2022/12/07 10:23:28;;;;;;;;;;;;;;;;;;5046525;28;1976;-57
2022/12/07 10:25:54;;;;;;;;;;;;;;;;;;5054988;28;4569;-63
2022/12/07 10:28:20;;;;;;;;;;;;;;;;;;5050011;28;4852;-60
2022/12/07 10:31:05;;;;;;;;;;;;;;;;;;5054261;28;5059;-59
2022/12/07 10:33:37;;;;;;;;;;;;;;;;;;5081786;28;5073;-60
2022/12/07 10:36:20;;;;;;;;;;;;;;;;;;5069433;28;4934;-59
2022/12/07 10:38:47;;;;;;;;;;;;;;;;;;5075579;28;1431;-58
2022/12/07 10:41:12;;;;;;;;;;;;;;;;;;5080128;28;4949;-59
2022/12/07 10:43:37;;;;;;;;;;;;;;;;;;5072536;28;4463;-60
2022/12/07 10:46:09;;;;;;;;;;;;;;;;;;5072151;28;4861;-58
2022/12/07 10:48:47;;;;;;;;;;;;;;;;;;5072671;28;4472;-59
2022/12/07 10:51:19;;;;;;;;;;;;;;;;;;5069308;28;5256;-57
2022/12/07 10:53:51;;;;;;;;;;;;;;;;;;5059550;28;4483;-58
2022/12/07 10:56:19;;;;;;;;;;;;;;;;;;5064456;28;4406;-59
2022/12/07 10:58:45;;;;;;;;;;;;;;;;;;5049800;28;5031;-58
2022/12/07 11:01:25;;;;;;;;;;;;;;;;;;5064023;28;5146;-59
2022/12/07 11:03:55;;;;;;;;;;;;;;;;;;5062240;28;5058;-59
2022/12/07 11:06:27;;;;;;;;;;;;;;;;;;5063420;28;5070;-56
2022/12/07 11:08:53;;;;;;;;;;;;;;;;;;5078281;28;4645;-59
2022/12/07 11:11:27;;;;;;;;;;;;;;;;;;5087265;28;1266;-59
2022/12/07 11:13:56;;;;;;;;;;;;;;;;;;5061318;28;4409;-60
2022/12/07 11:16:41;;;;;;;;;;;;;;;;;;5069997;28;5523;-59
2022/12/07 11:19:16;;;;;;;;;;;;;;;;;;5057584;28;4521;-59
2022/12/07 11:22:00;;;;;;;;;;;;;;;;;;5069943;28;4481;-60
2022/12/07 11:25:04;;;;;;;;;;;;;;;;;;5076787;28;4452;-60
2022/12/07 11:27:29;;;;;;;;;;;;;;;;;;5018742;28;4913;-68
2022/12/07 11:30:13;;;;;;;;;;;;;;;;;;5015542;28;5164;-67
2022/12/07 11:32:44;;;;;;;;;;;;;;;;;;5049244;28;3381;-65
2022/12/07 11:35:24;;;;;;;;;;;;;;;;;;5072842;28;5026;-66
2022/12/07 11:37:50;;;;;;;;;;;;;;;;;;5071308;28;4442;-67
2022/12/07 11:40:25;;;;;;;;;;;;;;;;;;5050733;28;4511;-67
2022/12/07 11:42:58;;;;;;;;;;;;;;;;;;5069162;28;4494;-69
2022/12/07 11:45:25;;;;;;;;;;;;;;;;;;5069519;28;5756;-68
2022/12/07 11:47:50;;;;;;;;;;;;;;;;;;5058961;28;5238;-69
2022/12/07 11:50:22;;;;;;;;;;;;;;;;;;5080013;28;1141;-69
2022/12/07 11:52:48;;;;;;;;;;;;;;;;;;5081970;28;4786;-68
2022/12/07 11:55:33;;;;;;;;;;;;;;;;;;5060335;28;5062;-69
2022/12/07 11:58:09;;;;;;;;;;;;;;;;;;5035602;28;5071;-66
2022/12/07 12:00:35;;;;;;;;;;;;;;;;;;5049932;28;4955;-67
2022/12/07 12:03:11;;;;;;;;;;;;;;;;;;5077297;28;4620;-61
2022/12/07 12:05:36;;;;;;;;;;;;;;;;;;5072295;28;1151;-67
2022/12/07 12:08:14;;;;;;;;;;;;;;;;;;5074386;28;5016;-66
2022/12/07 12:10:45;;;;;;;;;;;;;;;;;;5069544;28;4982;-68
2022/12/07 12:13:30;;;;;;;;;;;;;;;;;;5083045;28;5611;-66
2022/12/07 12:15:56;;;;;;;;;;;;;;;;;;5068602;28;4583;-63
2022/12/07 12:18:25;;;;;;;;;;;;;;;;;;5077194;28;5200;-67
2022/12/07 12:21:09;;;;;;;;;;;;;;;;;;5075956;28;4500;-58
2022/12/07 12:23:41;;;;;;;;;;;;;;;;;;5083089;28;1954;-60
2022/12/07 12:26:07;;;;;;;;;;;;;;;;;;5063799;28;4614;-59
2022/12/07 12:28:42;;;;;;;;;;;;;;;;;;5043557;28;4888;-61
2022/12/07 12:31:14;;;;;;;;;;;;;;;;;;5067982;28;4451;-62
2022/12/07 12:33:43;;;;;;;;;;;;;;;;;;5082627;28;5110;-60
2022/12/07 12:36:15;;;;;;;;;;;;;;;;;;5065170;28;5017;-61
2022/12/07 12:38:49;;;;;;;;;;;;;;;;;;5075283;28;3104;-62
2022/12/07 12:41:33;;;;;;;;;;;;;;;;;;5057065;28;4993;-62
2022/12/07 12:43:58;;;;;;;;;;;;;;;;;;5058981;28;4987;-62
2022/12/07 12:46:33;;;;;;;;;;;;;;;;;;5057342;28;4870;-60
2022/12/07 12:49:22;;;;;;;;;;;;;;;;;;5059151;28;4957;-60
2022/12/07 12:51:47;;;;;;;;;;;;;;;;;;5046658;28;5053;-59
2022/12/07 12:54:19;;;;;;;;;;;;;;;;;;5045925;28;4783;-56
2022/12/07 12:56:47;;;;;;;;;;;;;;;;;;5056678;28;1227;-59
2022/12/07 12:59:37;;;;;;;;;;;;;;;;;;5064724;28;5104;-58
2022/12/07 13:02:09;;;;;;;;;;;;;;;;;;5075432;28;5034;-58
2022/12/07 13:04:37;;;;;;;;;;;;;;;;;;5070393;28;5092;-58
2022/12/07 13:07:02;;;;;;;;;;;;;;;;;;5061976;28;5226;-59
2022/12/07 13:09:32;;;;;;;;;;;;;;;;;;5082648;28;5178;-61
2022/12/07 13:11:59;;;;;;;;;;;;;;;;;;5062354;28;4886;-59
2022/12/07 13:14:37;;;;;;;;;;;;;;;;;;5051330;28;1266;-60
2022/12/07 13:17:02;;;;;;;;;;;;;;;;;;5086032;28;5066;-59
2022/12/07 13:19:43;;;;;;;;;;;;;;;;;;5077716;28;4494;-59
2022/12/07 13:22:27;;;;;;;;;;;;;;;;;;5075794;28;4832;-59
2022/12/07 13:24:56;;;;;;;;;;;;;;;;;;5075531;28;5130;-59
2022/12/07 13:27:21;;;;;;;;;;;;;;;;;;5072885;28;4539;-58
2022/12/07 13:29:46;;;;;;;;;;;;;;;;;;5081650;28;2541;-59
2022/12/07 13:32:25;;;;;;;;;;;;;;;;;;5066556;28;4404;-61
2022/12/07 13:34:50;;;;;;;;;;;;;;;;;;5061675;28;4536;-60
2022/12/07 13:37:18;;;;;;;;;;;;;;;;;;5066776;28;4907;-60
2022/12/07 13:39:47;;;;;;;;;;;;;;;;;;5076279;28;4996;-59
2022/12/07 13:42:19;;;;;;;;;;;;;;;;;;5073835;28;5580;-62
2022/12/07 13:44:44;;;;;;;;;;;;;;;;;;5075907;28;1910;-62
2022/12/07 13:47:15;;;;;;;;;;;;;;;;;;5058089;28;4382;-61
2022/12/07 13:49:50;;;;;;;;;;;;;;;;;;5060134;28;5167;-62
2022/12/07 13:52:20;;;;;;;;;;;;;;;;;;5072382;28;4636;-59
2022/12/07 13:54:49;;;;;;;;;;;;;;;;;;5079187;28;5556;-58
2022/12/07 13:57:15;;;;;;;;;;;;;;;;;;5073458;28;4903;-60
2022/12/07 13:59:40;;;;;;;;;;;;;;;;;;5062577;28;3307;-60
2022/12/07 14:02:21;;;;;;;;;;;;;;;;;;5072831;28;5177;-60
2022/12/07 14:04:47;;;;;;;;;;;;;;;;;;5081775;28;4992;-59
2022/12/07 14:07:23;;;;;;;;;;;;;;;;;;5061241;28;5100;-60
2022/12/07 14:09:56;;;;;;;;;;;;;;;;;;5060727;28;5058;-60
2022/12/07 14:12:21;;;;;;;;;;;;;;;;;;5079240;28;4909;-59
2022/12/07 14:14:47;;;;;;;;;;;;;;;;;;5065917;28;1384;-58
2022/12/07 14:17:15;;;;;;;;;;;;;;;;;;5079968;28;4667;-59
2022/12/07 14:19:47;;;;;;;;;;;;;;;;;;5071956;28;4866;-57
2022/12/07 14:22:21;;;;;;;;;;;;;;;;;;5078736;28;5049;-58
2022/12/07 14:24:47;;;;;;;;;;;;;;;;;;5070186;28;5501;-59
2022/12/07 14:27:19;;;;;;;;;;;;;;;;;;5060565;28;5101;-58
2022/12/07 14:29:44;;;;;;;;;;;;;;;;;;5076544;28;1401;-57
2022/12/07 14:32:29;;;;;;;;;;;;;;;;;;5072499;28;4591;-58
2022/12/07 14:34:58;;;;;;;;;;;;;;;;;;5092748;28;5799;-58
2022/12/07 14:37:24;;;;;;;;;;;;;;;;;;5073788;28;5048;-58
2022/12/07 14:39:49;;;;;;;;;;;;;;;;;;5083385;28;5255;-59
2022/12/07 14:42:14;;;;;;;;;;;;;;;;;;5089070;28;5146;-58
2022/12/07 14:44:40;;;;;;;;;;;;;;;;;;5069230;28;1978;-58
2022/12/07 14:47:05;;;;;;;;;;;;;;;;;;5062277;28;5679;-59
2022/12/07 14:49:30;;;;;;;;;;;;;;;;;;5080804;28;6036;-58
2022/12/07 14:51:56;;;;;;;;;;;;;;;;;;5078484;28;5186;-58
2022/12/07 14:54:21;;;;;;;;;;;;;;;;;;5081534;28;5061;-58
2022/12/07 14:56:49;;;;;;;;;;;;;;;;;;5080348;28;1109;-58
2022/12/07 14:59:15;;;;;;;;;;;;;;;;;;5081914;28;5973;-58
2022/12/07 15:01:40;;;;;;;;;;;;;;;;;;5067082;28;4965;-58
2022/12/07 15:04:05;;;;;;;;;;;;;;;;;;5061352;28;5156;-58
2022/12/07 15:06:31;;;;;;;;;;;;;;;;;;5063076;28;4872;-58
2022/12/07 15:08:56;;;;;;;;;;;;;;;;;;5061863;28;4666;-59
2022/12/07 15:11:21;;;;;;;;;;;;;;;;;;5049493;28;1211;-58
2022/12/07 15:16:30;;;;;;;;;;;;;;;;;;5084933;28;5121;-59
2022/12/07 15:18:56;;;;;;;;;;;;;;;;;;5057970;28;5065;-58
2022/12/07 15:21:21;;;;;;;;;;;;;;;;;;5086092;28;5079;-59
2022/12/07 15:23:46;;;;;;;;;;;;;;;;;;5087712;28;1905;-60
2022/12/07 15:26:12;;;;;;;;;;;;;;;;;;5087243;28;4839;-59
2022/12/07 15:28:37;;;;;;;;;;;;;;;;;;5087341;28;4898;-58
2022/12/07 15:31:02;;;;;;;;;;;;;;;;;;5071414;28;5109;-57
2022/12/07 15:33:27;;;;;;;;;;;;;;;;;;5080486;28;5313;-58
2022/12/07 15:35:53;;;;;;;;;;;;;;;;;;5074875;28;4652;-57
2022/12/07 15:38:18;;;;;;;;;;;;;;;;;;5072091;28;3591;-59
2022/12/07 15:40:46;;;;;;;;;;;;;;;;;;5069623;28;5255;-58
2022/12/07 15:45:03;;;;;;;;;;;;;;;;;;5071144;28;4662;-59
2022/12/07 15:45:56;;;;;;;;;;;;;;;;;;5072088;28;5137;-59
2022/12/07 15:48:22;;;;;;;;;;;;;;;;;;5073306;28;5133;-58
2022/12/07 15:50:47;;;;;;;;;;;;;;;;;;5090058;28;5119;-55
2022/12/07 15:53:12;;;;;;;;;;;;;;;;;;5075114;28;4756;-58
2022/12/07 15:55:41;;;;;;;;;;;;;;;;;;5077053;28;4644;-67
2022/12/07 15:58:06;;;;;;;;;;;;;;;;;;5052636;28;5634;-63
2022/12/07 16:00:31;;;;;;;;;;;;;;;;;;5058252;28;5088;-66
2022/12/07 16:02:57;;;;;;;;;;;;;;;;;;5056488;28;4907;-57
2022/12/07 16:05:23;;;;;;;;;;;;;;;;;;5074726;28;1686;-59
2022/12/07 16:07:49;;;;;;;;;;;;;;;;;;5073425;28;4676;-64
2022/12/07 16:10:14;;;;;;;;;;;;;;;;;;5088340;28;4885;-65
2022/12/07 16:12:39;;;;;;;;;;;;;;;;;;5070433;28;4926;-62
2022/12/07 16:15:05;;;;;;;;;;;;;;;;;;5075103;28;5550;-64
2022/12/07 16:17:30;;;;;;;;;;;;;;;;;;5083754;28;1590;-64
2022/12/07 16:19:55;;;;;;;;;;;;;;;;;;5077702;28;5026;-66
2022/12/07 16:22:20;;;;;;;;;;;;;;;;;;5083863;28;5110;-66
2022/12/07 16:24:46;;;;;;;;;;;;;;;;;;5055434;28;4562;-60
2022/12/07 16:27:11;;;;;;;;;;;;;;;;;;5061801;28;5368;-63
2022/12/07 16:29:36;;;;;;;;;;;;;;;;;;5090084;28;3555;-58
2022/12/07 16:32:02;;;;;;;;;;;;;;;;;;5076409;28;4948;-59
2022/12/07 16:34:27;;;;;;;;;;;;;;;;;;5083434;28;5078;-58
2022/12/07 16:36:52;;;;;;;;;;;;;;;;;;5076127;28;4939;-59
2022/12/07 16:39:18;;;;;;;;;;;;;;;;;;5076991;28;5025;-59
2022/12/07 16:41:43;;;;;;;;;;;;;;;;;;5049499;28;3499;-59
2022/12/07 16:44:09;;;;;;;;;;;;;;;;;;5067282;28;5032;-59
2022/12/07 16:46:35;;;;;;;;;;;;;;;;;;5072282;28;4480;-59
2022/12/07 16:49:00;;;;;;;;;;;;;;;;;;5074471;28;5093;-59
2022/12/07 16:51:26;;;;;;;;;;;;;;;;;;5076389;28;5115;-60
2022/12/07 16:53:51;;;;;;;;;;;;;;;;;;5061514;28;5073;-60
2022/12/07 16:56:18;;;;;;;;;;;;;;;;;;5074327;28;3340;-69
2022/12/07 16:58:43;;;;;;;;;;;;;;;;;;5077583;28;4632;-63
2022/12/07 17:01:12;;;;;;;;;;;;;;;;;;5078913;28;4626;-64
2022/12/07 17:03:37;;;;;;;;;;;;;;;;;;5079328;28;4501;-67
2022/12/07 17:06:03;;;;;;;;;;;;;;;;;;5072687;28;5264;-70
2022/12/07 17:08:28;;;;;;;;;;;;;;;;;;5081291;28;2262;-66
2022/12/07 17:10:53;;;;;;;;;;;;;;;;;;5084598;28;4985;-65
2022/12/07 17:16:03;;;;;;;;;;;;;;;;;;5073508;28;5022;-66
2022/12/07 17:18:29;;;;;;;;;;;;;;;;;;5074690;28;4999;-66
2022/12/07 17:20:55;;;;;;;;;;;;;;;;;;5081797;28;5651;-65